Time;durP1;ratioP1;P1;durP2;ratioP2;P2;SDS_P1;SDS_P2;PMS_P1;PMS_P2;Temp;Humidity;BMP_temperature;BMP_pressure;BME280_temperature;BME280_humidity;BME280_pressure;Samples;Min_cycle;Max_cycle;Signal;HPM_P1;HPM_P2
2022/01/25 00:09:33;;;;;;;62.55;47.15;;;4.00;99.90;;;;;;5141518;27;20062;-79
2022/01/25 00:28:25;;;;;;;65.88;49.10;;;4.00;99.90;;;;;;5134851;27;20070;-79
2022/01/25 00:33:31;;;;;;;63.97;47.88;;;4.00;99.90;;;;;;5146918;27;20490;-79
2022/01/25 00:35:57;;;;;;;62.95;49.10;;;4.00;99.90;;;;;;5136257;27;20050;-79
2022/01/25 00:38:23;;;;;;;61.42;46.30;;;4.00;99.90;;;;;;5136570;27;20487;-79
2022/01/25 00:40:49;;;;;;;59.80;46.85;;;4.00;99.90;;;;;;5135132;27;20126;-79
2022/01/25 00:43:15;;;;;;;63.10;48.22;;;3.90;99.90;;;;;;5152658;27;20546;-79
2022/01/25 00:45:41;;;;;;;63.88;50.08;;;3.90;99.90;;;;;;5157260;27;20043;-79
2022/01/25 00:48:09;;;;;;;62.38;48.45;;;3.90;99.90;;;;;;5137540;27;20045;-79
2022/01/25 00:50:41;;;;;;;63.80;49.17;;;4.00;99.90;;;;;;5135723;27;20039;-79
2022/01/25 00:55:33;;;;;;;64.95;49.92;;;3.90;99.90;;;;;;5136392;27;20515;-79
2022/01/25 00:58:00;;;;;;;66.22;49.70;;;3.90;99.90;;;;;;5136531;27;20055;-79
2022/01/25 01:00:27;;;;;;;64.05;48.70;;;3.90;99.90;;;;;;5136355;27;20047;-79
2022/01/25 01:02:53;;;;;;;64.10;48.97;;;3.90;99.90;;;;;;5150480;27;20047;-79
2022/01/25 01:05:20;;;;;;;64.47;48.67;;;3.80;99.90;;;;;;5156952;27;20360;-79
2022/01/25 01:07:47;;;;;;;65.97;49.20;;;3.90;99.90;;;;;;5143943;27;20500;-79
2022/01/25 01:10:16;;;;;;;63.80;47.30;;;3.80;99.90;;;;;;5133957;27;20080;-79
2022/01/25 01:15:56;;;;;;;66.10;51.20;;;3.90;99.90;;;;;;5157149;27;20046;-79
2022/01/25 01:29:32;;;;;;;64.25;47.90;;;3.90;99.90;;;;;;5134854;27;20058;-79
2022/01/25 01:32:19;;;;;;;63.03;47.72;;;3.90;99.90;;;;;;5141921;27;20126;-79
2022/01/25 01:37:50;;;;;;;64.93;48.15;;;3.90;99.90;;;;;;5144974;27;20043;-76
2022/01/25 01:41:08;;;;;;;65.32;48.63;;;3.90;99.90;;;;;;5121296;27;20050;-79
2022/01/25 01:46:04;;;;;;;65.50;49.47;;;3.80;99.90;;;;;;5135478;27;20043;-79
2022/01/25 01:48:35;;;;;;;66.78;49.80;;;3.80;99.90;;;;;;5135872;27;20047;-79
2022/01/25 01:51:14;;;;;;;67.25;49.72;;;3.80;99.90;;;;;;5134530;27;20548;-80
2022/01/25 01:53:41;;;;;;;67.72;49.17;;;3.80;99.90;;;;;;5145860;27;20104;-79
2022/01/25 01:56:06;;;;;;;64.90;48.65;;;3.80;99.90;;;;;;5134578;27;20094;-79
2022/01/25 01:58:35;;;;;;;67.13;49.65;;;3.80;99.90;;;;;;5142361;27;20441;-79
2022/01/25 02:01:02;;;;;;;67.30;50.75;;;3.80;99.90;;;;;;5132989;27;20039;-79
2022/01/25 02:03:28;;;;;;;66.90;49.30;;;3.80;99.90;;;;;;5114817;27;20523;-79
2022/01/25 02:05:53;;;;;;;69.47;51.97;;;3.80;99.90;;;;;;5135000;27;20070;-79
2022/01/25 02:08:19;;;;;;;66.78;50.10;;;3.80;99.90;;;;;;5134771;27;20091;-79
2022/01/25 02:10:45;;;;;;;69.15;50.15;;;3.80;99.90;;;;;;5134708;27;20503;-79
2022/01/25 02:13:11;;;;;;;69.68;50.53;;;3.90;99.90;;;;;;5133863;27;20620;-80
2022/01/25 02:15:40;;;;;;;70.57;50.72;;;3.90;99.90;;;;;;5134610;27;20041;-80
2022/01/25 02:23:40;;;;;;;69.30;51.00;;;3.80;99.90;;;;;;5137572;27;20477;-79
2022/01/25 02:26:08;;;;;;;68.32;51.20;;;3.80;99.90;;;;;;5134329;27;20047;-79
2022/01/25 02:28:36;;;;;;;65.75;49.38;;;3.80;99.90;;;;;;5134618;27;20034;-79
2022/01/25 02:31:05;;;;;;;69.50;50.53;;;3.80;99.90;;;;;;5133693;27;20054;-79
2022/01/25 02:33:31;;;;;;;71.47;50.92;;;3.80;99.90;;;;;;5144968;27;20052;-79
2022/01/25 02:35:58;;;;;;;66.28;49.10;;;3.80;99.90;;;;;;5134629;27;20047;-79
2022/01/25 02:38:27;;;;;;;69.70;51.00;;;3.80;99.90;;;;;;5136760;27;20134;-79
2022/01/25 02:40:53;;;;;;;66.43;48.78;;;3.80;99.90;;;;;;5134376;27;20039;-80
2022/01/25 02:43:21;;;;;;;68.65;49.08;;;3.80;99.90;;;;;;5148503;27;20043;-78
2022/01/25 02:46:04;;;;;;;68.22;48.55;;;3.90;99.90;;;;;;5132708;27;20511;-79
2022/01/25 02:48:30;;;;;;;71.97;51.03;;;3.80;99.90;;;;;;5141262;27;20070;-79
2022/01/25 02:51:00;;;;;;;70.75;51.42;;;3.80;99.90;;;;;;5152006;27;20444;-79
2022/01/25 02:53:27;;;;;;;71.47;50.95;;;3.90;99.90;;;;;;5137677;27;20135;-79
2022/01/25 02:55:53;;;;;;;70.90;50.03;;;3.80;99.90;;;;;;5133683;27;20373;-79
2022/01/25 02:58:19;;;;;;;70.20;50.10;;;3.90;99.90;;;;;;5146436;27;20134;-79
2022/01/25 03:00:44;;;;;;;64.40;48.33;;;3.90;99.90;;;;;;5113582;28;20438;-79
2022/01/25 03:03:10;;;;;;;67.35;49.58;;;3.90;99.90;;;;;;5152244;27;20484;-78
2022/01/25 03:05:36;;;;;;;68.60;50.40;;;3.80;99.90;;;;;;5133551;27;20391;-79
2022/01/25 03:08:02;;;;;;;72.80;51.83;;;3.80;99.90;;;;;;5142052;27;20062;-72
2022/01/25 03:10:40;;;;;;;70.40;50.72;;;3.80;99.90;;;;;;5133683;27;20089;-79
2022/01/25 03:13:11;;;;;;;69.60;50.10;;;3.80;99.90;;;;;;5148930;27;20039;-78
2022/01/25 03:18:39;;;;;;;69.20;50.78;;;3.80;99.90;;;;;;5150358;27;20107;-79
2022/01/25 03:23:44;;;;;;;69.60;50.58;;;3.80;99.90;;;;;;5152528;27;20046;-79
2022/01/25 03:26:10;;;;;;;70.10;51.03;;;3.80;99.90;;;;;;5132686;27;20043;-79
2022/01/25 03:28:36;;;;;;;70.45;50.22;;;3.80;99.90;;;;;;5147920;27;20070;-78
2022/01/25 03:31:02;;;;;;;71.28;51.60;;;3.80;99.90;;;;;;5154361;27;20095;-79
2022/01/25 03:33:28;;;;;;;70.03;49.45;;;3.80;99.90;;;;;;5135971;27;20043;-79
2022/01/25 03:35:54;;;;;;;69.05;48.55;;;3.80;99.90;;;;;;5133627;27;20043;-78
2022/01/25 03:38:20;;;;;;;69.32;50.05;;;3.80;99.90;;;;;;5133570;27;20043;-79
2022/01/25 03:40:46;;;;;;;67.80;49.25;;;3.80;99.90;;;;;;5135013;27;20129;-79
2022/01/25 03:43:14;;;;;;;63.45;46.58;;;3.80;99.90;;;;;;5133385;27;20539;-79
2022/01/25 03:45:44;;;;;;;68.03;48.60;;;3.80;99.90;;;;;;5133570;27;20047;-79
2022/01/25 03:50:35;;;;;;;66.78;48.30;;;3.80;99.90;;;;;;5153870;27;20459;-79
2022/01/25 03:53:01;;;;;;;67.18;48.75;;;3.80;99.90;;;;;;5145328;27;20122;-79
2022/01/25 03:55:26;;;;;;;64.93;48.53;;;3.80;99.90;;;;;;5132566;27;20230;-79
2022/01/25 03:57:52;;;;;;;68.78;48.78;;;3.80;99.90;;;;;;5139854;27;20078;-79
2022/01/25 04:00:18;;;;;;;66.95;48.47;;;3.80;99.90;;;;;;5150585;27;20042;-79
2022/01/25 04:02:53;;;;;;;70.03;49.85;;;3.80;99.90;;;;;;5133391;27;20043;-79
2022/01/25 04:05:23;;;;;;;66.97;47.80;;;3.80;99.90;;;;;;5132280;27;20428;-79
2022/01/25 04:07:50;;;;;;;66.22;47.90;;;3.80;99.90;;;;;;5132976;27;20122;-79
2022/01/25 04:10:19;;;;;;;64.88;47.17;;;3.80;99.90;;;;;;5132582;27;20074;-78
2022/01/25 04:12:46;;;;;;;62.60;46.05;;;3.80;99.90;;;;;;5140071;27;20050;-79
2022/01/25 04:15:13;;;;;;;65.32;45.90;;;3.80;99.90;;;;;;5148399;27;20084;-74
2022/01/25 04:17:40;;;;;;;67.30;47.67;;;3.80;99.90;;;;;;5153096;27;20051;-79
2022/01/25 04:20:21;;;;;;;64.30;46.92;;;3.80;99.90;;;;;;5137924;27;20396;-79
2022/01/25 04:25:31;;;;;;;65.72;45.80;;;3.80;99.90;;;;;;5150330;27;20642;-79
2022/01/25 04:27:56;;;;;;;63.78;45.38;;;3.80;99.90;;;;;;5136444;27;20043;-78
2022/01/25 04:30:22;;;;;;;64.25;46.30;;;3.80;99.90;;;;;;5136130;27;20047;-79
2022/01/25 04:32:53;;;;;;;66.30;47.22;;;3.80;99.90;;;;;;5154486;27;20040;-79
2022/01/25 04:48:57;;;;;;;68.30;45.88;;;3.80;99.90;;;;;;5152051;27;20058;-79
2022/01/25 04:54:31;;;;;;;69.90;47.88;;;3.80;99.90;;;;;;5146194;27;20051;-79
2022/01/25 04:57:01;;;;;;;67.03;46.25;;;3.80;99.90;;;;;;5156901;27;20479;-79
2022/01/25 05:01:58;;;;;;;68.68;47.00;;;3.80;99.90;;;;;;5136822;27;20488;-79
2022/01/25 05:04:29;;;;;;;68.45;48.53;;;3.80;99.90;;;;;;5142226;27;20046;-78
2022/01/25 05:07:04;;;;;;;67.40;45.95;;;3.80;99.90;;;;;;5136364;27;20110;-78
2022/01/25 05:09:32;;;;;;;68.50;46.95;;;3.90;99.90;;;;;;5136325;27;20043;-79
2022/01/25 05:11:58;;;;;;;68.43;46.70;;;3.80;99.90;;;;;;5140698;27;20130;-78
2022/01/25 05:14:31;;;;;;;67.32;46.97;;;3.80;99.90;;;;;;5120893;27;20125;-80
2022/01/25 05:17:00;;;;;;;68.90;47.95;;;3.80;99.90;;;;;;5137110;27;20050;-79
2022/01/25 05:22:04;;;;;;;65.18;46.55;;;3.80;99.90;;;;;;5135979;27;20050;-80
2022/01/25 05:22:29;;;;;;;61.97;45.33;;;3.90;99.90;;;;;;5135637;27;20051;-79
2022/01/25 05:24:56;;;;;;;66.65;46.17;;;3.80;99.90;;;;;;5135551;27;20111;-80
2022/01/25 05:27:26;;;;;;;67.90;46.53;;;3.80;99.90;;;;;;5135353;27;20039;-79
2022/01/25 05:29:52;;;;;;;;;;;3.80;99.90;;;;;;5136587;27;20098;-80
2022/01/25 05:32:18;;;;;;;66.47;45.50;;;3.80;99.90;;;;;;5134800;27;19966;-73
2022/01/25 05:34:44;;;;;;;67.55;46.83;;;3.70;99.90;;;;;;5135808;27;20057;-79
2022/01/25 05:37:10;;;;;;;68.70;46.08;;;3.80;99.90;;;;;;5135270;27;20048;-80
2022/01/25 05:39:37;;;;;;;69.03;45.53;;;3.80;99.90;;;;;;5134584;27;20511;-80
2022/01/25 05:42:25;;;;;;;67.30;45.60;;;3.80;99.90;;;;;;5135976;27;20040;-80
2022/01/25 05:47:46;;;;;;;66.00;45.05;;;3.70;99.90;;;;;;5130403;27;20047;-79
2022/01/25 05:50:13;;;;;;;67.57;45.45;;;3.70;99.90;;;;;;5135668;27;20047;-80
2022/01/25 05:52:40;;;;;;;67.18;45.28;;;3.70;99.90;;;;;;5135344;27;20044;-79
2022/01/25 05:55:07;;;;;;;66.68;45.88;;;3.80;99.90;;;;;;5135681;27;20122;-79
2022/01/25 05:57:33;;;;;;;68.63;45.67;;;3.80;99.90;;;;;;5135496;27;20095;-79
2022/01/25 06:00:00;;;;;;;66.13;44.70;;;3.80;99.90;;;;;;5134716;27;20542;-79
2022/01/25 06:02:28;;;;;;;68.68;45.30;;;3.80;99.90;;;;;;5135005;27;20082;-79
2022/01/25 06:04:54;;;;;;;63.10;43.88;;;3.80;99.90;;;;;;5135541;27;20114;-79
2022/01/25 06:07:20;;;;;;;63.65;42.45;;;3.70;99.90;;;;;;5135055;27;20047;-80
2022/01/25 06:09:48;;;;;;;61.58;42.25;;;3.80;99.90;;;;;;5134713;27;20043;-79
2022/01/25 06:12:14;;;;;;;62.45;44.15;;;3.70;99.90;;;;;;5135216;27;20086;-80
2022/01/25 06:14:40;;;;;;;63.45;43.75;;;3.80;99.90;;;;;;5134843;27;20074;-79
2022/01/25 06:17:06;;;;;;;62.65;42.38;;;3.80;99.90;;;;;;5134613;27;20122;-79
2022/01/25 06:19:32;;;;;;;63.72;43.55;;;3.80;99.90;;;;;;5134684;27;20150;-79
2022/01/25 06:21:58;;;;;;;63.38;43.22;;;3.80;99.90;;;;;;5134836;27;20050;-80
2022/01/25 06:24:24;;;;;;;63.83;44.67;;;3.80;99.90;;;;;;5134787;27;20459;-73
2022/01/25 06:26:50;;;;;;;63.05;43.22;;;3.80;99.90;;;;;;5134821;27;20131;-80
2022/01/25 06:29:18;;;;;;;64.05;42.15;;;3.80;99.90;;;;;;5134731;27;20066;-80
2022/01/25 06:31:46;;;;;;;64.45;42.83;;;3.80;99.90;;;;;;5134422;27;20468;-80
2022/01/25 06:34:12;;;;;;;66.15;44.40;;;3.80;99.90;;;;;;5134636;27;20051;-80
2022/01/25 06:36:38;;;;;;;63.58;44.67;;;3.80;99.90;;;;;;5134078;27;20092;-80
2022/01/25 06:39:03;;;;;;;64.75;44.05;;;3.90;99.90;;;;;;5134106;27;20043;-80
2022/01/25 06:41:29;;;;;;;63.38;43.08;;;3.80;99.90;;;;;;5134346;27;20039;-79
2022/01/25 06:43:55;;;;;;;64.72;44.13;;;3.80;99.90;;;;;;5134923;27;20476;-79
2022/01/25 06:46:20;;;;;;;61.75;42.33;;;3.80;99.90;;;;;;5133827;27;20079;-79
2022/01/25 06:48:46;;;;;;;63.55;43.80;;;3.80;99.90;;;;;;5133023;27;20063;-80
2022/01/25 06:51:12;;;;;;;60.65;41.33;;;3.80;99.90;;;;;;5134729;27;20100;-80
2022/01/25 06:53:37;;;;;;;62.45;42.45;;;3.80;99.90;;;;;;5134037;27;20129;-80
2022/01/25 06:56:05;;;;;;;66.03;44.17;;;3.80;99.90;;;;;;5134177;27;20051;-79
2022/01/25 06:58:31;;;;;;;65.07;43.20;;;3.80;99.90;;;;;;5133772;27;20388;-79
2022/01/25 07:00:57;;;;;;;63.58;42.17;;;3.80;99.90;;;;;;5134320;27;20047;-80
2022/01/25 07:03:22;;;;;;;65.55;42.90;;;3.90;99.90;;;;;;5132752;27;20050;-79
2022/01/25 07:05:48;;;;;;;65.13;42.20;;;3.80;99.90;;;;;;5132199;27;20032;-80
2022/01/25 07:08:14;;;;;;;65.82;43.22;;;3.80;99.90;;;;;;5133991;27;20035;-80
2022/01/25 07:10:40;;;;;;;68.18;43.92;;;3.80;99.90;;;;;;5133598;27;20042;-79
2022/01/25 07:13:05;;;;;;;65.50;42.95;;;3.80;99.90;;;;;;5133213;27;20038;-80
2022/01/25 07:15:31;;;;;;;62.22;41.92;;;3.80;99.90;;;;;;5132387;27;20043;-73
2022/01/25 07:17:57;;;;;;;64.68;42.53;;;3.80;99.90;;;;;;5133326;27;20043;-79
2022/01/25 07:20:23;;;;;;;63.00;41.80;;;3.80;99.90;;;;;;5133383;27;20501;-79
2022/01/25 07:22:48;;;;;;;64.68;43.08;;;3.80;99.90;;;;;;5133137;27;20039;-79
2022/01/25 07:25:14;;;;;;;66.32;44.63;;;3.80;99.90;;;;;;5133152;27;20473;-79
2022/01/25 07:27:40;;;;;;;64.68;43.72;;;3.80;99.90;;;;;;5132536;27;20048;-79
2022/01/25 07:30:07;;;;;;;63.58;42.47;;;3.80;99.90;;;;;;5133373;27;20112;-79
2022/01/25 07:32:33;;;;;;;71.72;45.95;;;3.80;99.90;;;;;;5133454;27;20100;-73
2022/01/25 07:34:59;;;;;;;66.07;45.58;;;3.70;99.90;;;;;;5133392;27;20127;-79
2022/01/25 07:37:24;;;;;;;67.20;45.17;;;3.80;99.90;;;;;;5133399;27;20126;-79
2022/01/25 07:39:50;;;;;;;67.68;44.47;;;3.80;99.90;;;;;;5132548;27;20039;-79
2022/01/25 07:42:17;;;;;;;67.68;44.67;;;3.70;99.90;;;;;;5133602;27;20047;-79
2022/01/25 07:44:44;;;;;;;67.95;44.35;;;3.80;99.90;;;;;;5132840;27;20051;-80
2022/01/25 07:47:10;;;;;;;68.35;45.03;;;3.70;99.90;;;;;;5133115;27;20048;-79
2022/01/25 07:49:36;;;;;;;66.57;44.67;;;3.70;99.90;;;;;;5133186;27;20058;-73
2022/01/25 07:52:04;;;;;;;68.28;44.10;;;3.80;99.90;;;;;;5133247;27;20124;-80
2022/01/25 07:54:29;;;;;;;68.40;45.92;;;3.80;99.90;;;;;;5133306;27;20057;-80
2022/01/25 07:56:56;;;;;;;68.85;45.83;;;3.80;99.90;;;;;;5131521;28;20051;-80
2022/01/25 07:59:21;;;;;;;64.40;42.97;;;3.80;99.90;;;;;;5124873;28;20546;-78
2022/01/25 08:01:47;;;;;;;69.93;44.75;;;3.80;99.90;;;;;;5130588;27;20047;-74
2022/01/25 08:04:16;;;;;;;68.60;44.00;;;3.80;99.90;;;;;;5133503;27;20051;-79
2022/01/25 08:06:42;;;;;;;67.63;44.22;;;3.90;99.90;;;;;;5133912;27;20039;-79
2022/01/25 08:09:09;;;;;;;66.45;43.83;;;3.80;99.90;;;;;;5133564;27;20054;-76
2022/01/25 08:11:35;;;;;;;68.05;45.70;;;3.80;99.90;;;;;;5134395;27;20088;-80
2022/01/25 08:14:12;;;;;;;68.15;44.47;;;3.80;99.90;;;;;;5135611;27;20519;-80
2022/01/25 08:16:46;;;;;;;71.20;46.60;;;3.90;99.90;;;;;;5136468;27;20047;-73
2022/01/25 08:19:13;;;;;;;70.55;44.50;;;3.90;99.90;;;;;;5136849;27;20515;-79
2022/01/25 08:21:42;;;;;;;71.22;45.90;;;3.80;99.90;;;;;;5136500;27;20049;-73
2022/01/25 08:24:09;;;;;;;72.57;46.63;;;3.80;99.90;;;;;;5137131;27;20042;-80
2022/01/25 08:26:35;;;;;;;71.50;46.03;;;3.90;99.90;;;;;;5137064;27;20039;-79
2022/01/25 08:29:03;;;;;;;69.82;44.40;;;3.90;99.90;;;;;;5136431;27;20484;-79
2022/01/25 08:31:29;;;;;;;72.30;46.65;;;3.90;99.90;;;;;;5137214;27;20100;-79
2022/01/25 08:33:55;;;;;;;71.57;46.88;;;3.90;99.90;;;;;;5136305;27;20039;-79
2022/01/25 08:36:21;;;;;;;68.82;46.10;;;3.90;99.90;;;;;;5136569;27;20043;-80
2022/01/25 08:38:46;;;;;;;69.85;45.45;;;3.90;99.90;;;;;;5136257;27;20484;-79
2022/01/25 08:41:13;;;;;;;67.05;44.40;;;3.90;99.90;;;;;;5125690;27;20123;-79
2022/01/25 08:43:39;;;;;;;72.13;46.63;;;3.90;99.90;;;;;;5116283;28;20087;-79
2022/01/25 08:46:04;;;;;;;69.75;45.38;;;3.90;99.90;;;;;;5115499;28;20144;-79
2022/01/25 08:48:30;;;;;;;71.60;46.38;;;3.90;99.90;;;;;;5115081;28;20050;-80
2022/01/25 08:50:56;;;;;;;65.55;44.80;;;4.00;99.90;;;;;;5120437;27;20047;-80
2022/01/25 08:53:22;;;;;;;64.93;43.72;;;4.00;99.90;;;;;;5136700;27;20066;-79
2022/01/25 08:55:48;;;;;;;66.38;44.35;;;4.00;99.90;;;;;;5135891;27;20039;-79
2022/01/25 08:58:15;;;;;;;65.10;43.58;;;4.00;99.90;;;;;;5136641;27;20520;-80
2022/01/25 09:00:41;;;;;;;67.45;44.83;;;4.00;99.90;;;;;;5136007;27;20089;-79
2022/01/25 09:03:06;;;;;;;67.30;45.20;;;4.00;99.90;;;;;;5135648;27;20474;-79
2022/01/25 09:05:32;;;;;;;69.05;45.33;;;4.00;99.90;;;;;;5136043;27;20514;-79
2022/01/25 09:07:58;;;;;;;71.32;45.75;;;4.00;99.90;;;;;;5135712;27;20047;-79
2022/01/25 09:10:28;;;;;;;69.93;46.60;;;4.00;99.90;;;;;;5135632;27;20051;-79
2022/01/25 09:12:54;;;;;;;69.60;44.97;;;4.10;99.90;;;;;;5134868;27;20434;-79
2022/01/25 09:15:21;;;;;;;68.80;44.35;;;4.00;99.90;;;;;;5135578;27;20071;-79
2022/01/25 09:17:47;;;;;;;70.75;47.67;;;4.10;99.90;;;;;;5135564;27;20051;-73
2022/01/25 09:20:13;;;;;;;71.78;45.05;;;4.00;99.90;;;;;;5135992;27;20082;-79
2022/01/25 09:22:39;;;;;;;67.13;44.65;;;4.20;99.90;;;;;;5136018;27;20387;-80
2022/01/25 09:25:06;;;;;;;71.28;45.50;;;4.10;99.90;;;;;;5134948;27;20051;-80
2022/01/25 09:27:31;;;;;;;66.75;44.42;;;4.10;99.90;;;;;;5136018;27;20054;-80
2022/01/25 09:29:57;;;;;;;70.43;44.97;;;4.10;99.90;;;;;;5134847;27;20043;-79
2022/01/25 09:32:23;;;;;;;68.97;45.20;;;4.20;99.90;;;;;;5135907;27;20512;-79
2022/01/25 09:34:49;;;;;;;70.43;45.90;;;4.10;99.90;;;;;;5135303;27;20395;-72
2022/01/25 09:37:15;;;;;;;67.78;43.60;;;4.10;99.90;;;;;;5135016;27;20051;-79
2022/01/25 09:39:41;;;;;;;68.30;45.85;;;4.10;99.90;;;;;;5169524;27;20096;-79
2022/01/25 09:42:11;;;;;;;67.63;44.58;;;4.10;99.90;;;;;;5134748;27;20643;-79
2022/01/25 09:44:39;;;;;;;68.57;45.65;;;4.20;99.90;;;;;;5135343;27;20062;-79
2022/01/25 09:47:05;;;;;;;66.43;44.40;;;4.20;99.90;;;;;;5135006;27;20043;-79
2022/01/25 09:49:33;;;;;;;74.88;47.50;;;4.20;99.90;;;;;;5135559;27;20086;-79
2022/01/25 09:52:04;;;;;;;67.22;45.00;;;4.20;99.90;;;;;;5134818;27;20095;-79
2022/01/25 09:54:32;;;;;;;66.18;44.38;;;4.20;99.90;;;;;;5135494;27;20051;-79
2022/01/25 09:57:00;;;;;;;67.95;44.78;;;4.20;99.90;;;;;;5134318;27;20062;-79
2022/01/25 09:59:26;;;;;;;65.47;43.70;;;4.20;99.90;;;;;;5134802;27;20050;-79
2022/01/25 10:01:53;;;;;;;67.15;44.80;;;4.20;99.90;;;;;;5134669;27;20047;-73
2022/01/25 10:04:37;;;;;;;66.97;44.13;;;4.30;99.90;;;;;;5135385;27;20419;-79
2022/01/25 10:07:09;;;;;;;67.60;43.50;;;4.30;99.90;;;;;;5134592;27;20066;-78
2022/01/25 10:09:42;;;;;;;65.50;43.45;;;4.30;99.90;;;;;;5133923;27;20043;-79
2022/01/25 10:12:34;;;;;;;66.25;44.08;;;4.30;99.90;;;;;;5133175;27;20508;-78
2022/01/25 10:15:00;;;;;;;67.13;43.92;;;4.30;99.90;;;;;;5129285;27;20051;-79
2022/01/25 10:17:33;;;;;;;66.07;42.90;;;4.30;99.90;;;;;;5134987;27;20119;-79
2022/01/25 10:19:59;;;;;;;64.05;44.33;;;4.30;99.90;;;;;;5134342;27;20468;-79
2022/01/25 10:22:25;;;;;;;63.10;41.70;;;4.30;99.90;;;;;;5134760;27;20051;-79
2022/01/25 10:24:51;;;;;;;65.25;42.30;;;4.30;99.90;;;;;;5132531;27;20043;-79
2022/01/25 10:27:22;;;;;;;62.60;42.72;;;4.30;99.90;;;;;;5133839;27;20043;-78
2022/01/25 10:29:48;;;;;;;66.60;44.20;;;4.40;99.90;;;;;;5133810;27;20049;-79
2022/01/25 10:32:15;;;;;;;62.80;42.55;;;4.40;99.90;;;;;;5133984;27;20268;-78
2022/01/25 10:34:45;;;;;;;64.43;43.22;;;4.40;99.90;;;;;;5134712;27;20605;-79
2022/01/25 10:37:17;;;;;;;63.38;41.92;;;4.40;99.90;;;;;;5133993;27;20400;-79
2022/01/25 10:39:46;;;;;;;62.88;42.65;;;4.40;99.90;;;;;;5133535;27;20062;-79
2022/01/25 10:42:29;;;;;;;62.65;42.33;;;4.40;99.90;;;;;;5133196;27;20046;-79
2022/01/25 10:45:10;;;;;;;65.85;43.22;;;4.40;99.90;;;;;;5134195;27;20042;-73
2022/01/25 10:47:51;;;;;;;;;;;4.40;99.90;;;;;;5134751;27;20043;-79
2022/01/25 10:50:19;;;;;;;61.85;42.03;;;4.40;99.90;;;;;;5133638;27;20010;-79
2022/01/25 10:52:46;;;;;;;63.63;42.50;;;4.40;99.90;;;;;;5133966;27;20043;-78
2022/01/25 10:55:14;;;;;;;65.55;41.97;;;4.40;99.90;;;;;;5133562;27;20051;-79
2022/01/25 10:57:39;;;;;;;63.58;42.30;;;4.40;99.90;;;;;;5134094;27;20059;-79
2022/01/25 11:00:11;;;;;;;63.97;42.25;;;4.40;99.90;;;;;;5133504;27;20098;-78
2022/01/25 11:02:51;;;;;;;63.05;42.35;;;4.50;99.90;;;;;;5134144;27;20077;-79
2022/01/25 11:05:18;;;;;;;65.25;42.90;;;4.50;99.90;;;;;;5132979;27;20472;-79
2022/01/25 11:07:44;;;;;;;64.95;43.22;;;4.40;99.90;;;;;;5133974;27;20047;-79
2022/01/25 11:10:16;;;;;;;64.10;42.28;;;4.50;99.90;;;;;;5133341;27;20085;-78
2022/01/25 11:12:49;;;;;;;68.53;44.38;;;4.50;99.90;;;;;;5134110;27;20505;-78
2022/01/25 11:15:15;;;;;;;66.88;44.50;;;4.50;99.90;;;;;;5133193;27;20557;-78
2022/01/25 11:17:40;;;;;;;66.45;43.72;;;4.50;99.90;;;;;;5133407;27;20119;-79
2022/01/25 11:20:07;;;;;;;68.20;44.97;;;4.50;99.90;;;;;;5112930;27;20082;-81
2022/01/25 11:22:33;;;;;;;69.38;44.20;;;4.50;99.90;;;;;;5117704;27;20183;-80
2022/01/25 11:25:07;;;;;;;70.15;46.00;;;4.50;99.90;;;;;;5133681;27;20497;-74
2022/01/25 11:27:33;;;;;;;69.15;44.97;;;4.60;99.90;;;;;;5133168;27;20051;-81
2022/01/25 11:30:25;;;;;;;68.32;46.13;;;4.60;99.90;;;;;;5128078;27;20050;-74
2022/01/25 11:32:52;;;;;;;66.82;44.83;;;4.60;99.90;;;;;;5124440;27;20050;-78
2022/01/25 11:35:23;;;;;;;69.72;45.15;;;4.60;99.90;;;;;;5116350;27;20123;-81
2022/01/25 11:37:50;;;;;;;66.93;44.88;;;4.60;99.90;;;;;;5123838;27;20043;-77
2022/01/25 11:40:20;;;;;;;70.90;45.08;;;4.60;99.90;;;;;;5129740;27;20058;-82
2022/01/25 11:42:48;;;;;;;69.87;44.60;;;4.60;99.90;;;;;;5130728;27;20039;-80
2022/01/25 11:45:14;;;;;;;68.70;44.65;;;4.60;99.90;;;;;;5129510;27;20039;-81
2022/01/25 11:47:40;;;;;;;67.68;44.25;;;4.60;99.90;;;;;;5130214;28;20046;-82
2022/01/25 11:50:11;;;;;;;69.32;45.42;;;4.60;99.90;;;;;;5130142;27;20047;-77
2022/01/25 11:52:47;;;;;;;66.28;42.65;;;4.70;99.90;;;;;;5130386;27;20051;-80
2022/01/25 11:55:28;;;;;;;65.55;42.50;;;4.70;99.90;;;;;;5129700;27;20055;-80
2022/01/25 11:58:26;;;;;;;;;;;4.70;99.90;;;;;;5130432;27;20051;-81
2022/01/25 12:00:55;;;;;;;67.18;44.22;;;4.70;99.90;;;;;;5084614;27;20064;-79
2022/01/25 12:03:31;;;;;;;69.80;43.53;;;4.70;99.90;;;;;;5129152;27;20042;-82
2022/01/25 12:06:25;;;;;;;68.60;44.47;;;4.70;99.90;;;;;;5130362;28;20045;-79
2022/01/25 12:12:00;;;;;;;66.38;43.10;;;4.70;99.90;;;;;;5130510;28;20662;-81
2022/01/25 12:14:33;;;;;;;69.55;44.67;;;4.70;99.90;;;;;;5129858;27;20096;-80
2022/01/25 12:17:02;;;;;;;67.50;44.28;;;4.70;99.90;;;;;;5123179;27;20088;-81
2022/01/25 12:19:30;;;;;;;66.97;43.35;;;4.70;99.90;;;;;;5129498;28;20049;-81
2022/01/25 12:21:59;;;;;;;67.40;45.10;;;4.70;99.90;;;;;;5130034;27;20051;-78
2022/01/25 12:24:35;;;;;;;69.43;44.15;;;4.70;99.90;;;;;;5118696;27;20047;-80
2022/01/25 12:27:28;;;;;;;66.38;42.80;;;4.70;99.90;;;;;;5109595;28;20112;-75
2022/01/25 12:30:14;;;;;;;67.80;43.60;;;4.70;99.90;;;;;;5118462;27;20050;-77
2022/01/25 12:32:48;;;;;;;67.82;43.92;;;4.70;99.90;;;;;;5129715;27;20047;-75
2022/01/25 12:35:18;;;;;;;64.70;42.88;;;4.70;99.90;;;;;;5129692;28;20274;-81
2022/01/25 12:37:53;;;;;;;67.47;42.90;;;4.70;99.90;;;;;;5130301;27;20047;-80
2022/01/25 12:40:25;;;;;;;66.43;44.05;;;4.70;99.90;;;;;;5138399;27;20057;-80
2022/01/25 12:42:55;;;;;;;65.93;42.35;;;4.70;99.90;;;;;;5150403;27;20051;-78
2022/01/25 12:45:23;;;;;;;64.80;42.55;;;4.70;99.90;;;;;;5147936;27;20067;-80
2022/01/25 12:48:13;;;;;;;65.18;44.03;;;4.80;99.90;;;;;;5152370;27;20051;-81
2022/01/25 12:50:43;;;;;;;64.97;43.05;;;4.80;99.90;;;;;;5154669;27;20465;-81
2022/01/25 12:53:13;;;;;;;66.53;43.13;;;4.70;99.90;;;;;;5153371;27;20103;-74
2022/01/25 12:55:45;;;;;;;65.18;44.05;;;4.80;99.90;;;;;;5134627;27;20507;-80
2022/01/25 12:58:11;;;;;;;66.03;42.95;;;4.80;99.90;;;;;;5132377;27;20384;-72
2022/01/25 13:00:43;;;;;;;67.38;45.67;;;4.70;99.90;;;;;;5134267;27;20072;-79
2022/01/25 13:03:29;;;;;;;62.22;42.60;;;4.80;99.90;;;;;;5136184;27;20040;-73
2022/01/25 13:06:11;;;;;;;64.47;42.60;;;4.80;99.90;;;;;;5137335;27;20035;-78
2022/01/25 13:08:49;;;;;;;63.22;42.58;;;4.80;99.90;;;;;;5135443;27;20054;-79
2022/01/25 13:11:20;;;;;;;66.50;42.72;;;4.70;99.90;;;;;;5135851;27;20047;-78
2022/01/25 13:16:49;;;;;;;63.95;42.03;;;4.80;99.90;;;;;;5155341;27;20047;-79
2022/01/25 13:19:40;;;;;;;69.78;42.67;;;4.70;99.90;;;;;;5156467;27;20471;-79
2022/01/25 13:22:10;;;;;;;;;;;4.70;99.90;;;;;;5157419;27;20049;-79
2022/01/25 13:24:45;;;;;;;65.90;43.05;;;4.70;99.90;;;;;;5155467;27;19926;-78
2022/01/25 13:27:14;;;;;;;64.82;43.35;;;4.70;99.90;;;;;;5115417;28;20188;-72
2022/01/25 13:32:51;;;;;;;62.78;41.88;;;4.80;99.90;;;;;;5156536;27;20178;-79
2022/01/25 13:35:32;;;;;;;63.20;42.63;;;4.70;99.90;;;;;;5155421;27;20456;-78
2022/01/25 13:38:09;;;;;;;65.45;41.90;;;4.70;99.90;;;;;;5115273;28;20083;-79
2022/01/25 13:46:05;;;;;;;63.08;41.58;;;4.70;99.90;;;;;;5114905;28;20048;-79
2022/01/25 13:48:32;;;;;;;64.80;41.40;;;4.70;99.90;;;;;;5114418;28;20488;-78
2022/01/25 13:51:00;;;;;;;62.35;40.35;;;4.70;99.90;;;;;;5117152;27;20374;-78
2022/01/25 13:53:27;;;;;;;63.22;41.55;;;4.70;99.90;;;;;;5154700;27;20514;-78
2022/01/25 13:55:57;;;;;;;61.83;40.45;;;4.70;99.90;;;;;;5156029;27;20039;-78
2022/01/25 13:58:35;;;;;;;63.38;40.22;;;4.70;99.90;;;;;;5155553;27;20058;-78
2022/01/25 14:01:05;;;;;;;65.00;41.13;;;4.70;99.90;;;;;;5156355;27;20046;-78
2022/01/25 14:03:39;;;;;;;60.90;40.70;;;4.70;99.90;;;;;;5154453;27;20034;-78
2022/01/25 14:06:31;;;;;;;62.85;41.10;;;4.70;99.90;;;;;;5114669;27;20300;-78
2022/01/25 14:09:16;;;;;;;61.60;40.40;;;4.70;99.90;;;;;;5114682;28;20066;-78
2022/01/25 14:25:33;;;;;;;58.75;38.97;;;4.60;99.90;;;;;;5122829;27;20047;-72
2022/01/25 14:28:01;;;;;;;60.17;39.05;;;4.60;99.90;;;;;;5155593;27;20070;-79
2022/01/25 14:30:31;;;;;;;61.53;39.88;;;4.60;99.90;;;;;;5154829;27;20082;-78
2022/01/25 14:33:02;;;;;;;61.08;40.90;;;4.60;99.90;;;;;;5155369;27;20129;-78
2022/01/25 14:35:32;;;;;;;61.58;39.22;;;4.60;99.90;;;;;;5152426;27;20368;-78
2022/01/25 14:38:00;;;;;;;60.88;40.35;;;4.60;99.90;;;;;;5134900;27;20047;-78
2022/01/25 14:40:27;;;;;;;60.55;39.72;;;4.60;99.90;;;;;;5133593;27;20487;-78
2022/01/25 14:42:54;;;;;;;64.35;40.42;;;4.60;99.90;;;;;;5134543;27;20050;-78
2022/01/25 14:45:22;;;;;;;63.65;40.28;;;4.60;99.90;;;;;;5134115;27;20433;-72